CheckWX is a tool to help pilots better visualize weather data.  It is not intended as a substitute for an official pre-flight weather briefing.

18:03:59 UTC

KALB METAR
Albany International Airport
Albany, New York, USA
Current

13 mins ago

KALB 241751Z 30014G19KT 10SM FEW028 BKN035 BKN060 11/03 A2984 RMK AO2 SLP105 T01110028 10122 20094 51011
Observed
Apr-24 @ 17:51 UTC
Wind
  • 300° at 14 KTS
  • Gusting to 19 KTS
Visibility
10 SM
Flight Rules
VFR
Cloud Levels
  • Few at 2,800' AGL
  • Broken at 3,500' AGL
  • Broken at 6,000' AGL
Temperature
11°C / 52°F
Dewpoint
C / 37°F
Humidity
58%
Altimeter
29.84" Hg
Pressure
1010.52 hPa
Previous

1 hour ago

KALB 241651Z 28017G24KT 10SM SCT028 BKN038 OVC055 11/03 A2984 RMK AO2 SLP105 T01110033
Observed
Apr-24 @ 16:51 UTC
Wind
  • 280° at 17 KTS
  • Gusting to 24 KTS
Visibility
10 SM
Flight Rules
VFR
Cloud Levels
  • Scattered at 2,800' AGL
  • Broken at 3,800' AGL
  • Overcast at 5,500' AGL
Temperature
11°C / 52°F
Dewpoint
C / 37°F
Humidity
58%
Altimeter
29.84" Hg
Pressure
1010.52 hPa
Previous

2 hours ago

KALB 241551Z 32013G19KT 10SM BKN038 BKN050 11/03 A2983 RMK AO2 SLP101 T01060028
Observed
Apr-24 @ 15:51 UTC
Wind
  • 320° at 13 KTS
  • Gusting to 19 KTS
Visibility
10 SM
Flight Rules
VFR
Cloud Levels
  • Broken at 3,800' AGL
  • Broken at 5,000' AGL
Temperature
11°C / 52°F
Dewpoint
C / 37°F
Humidity
58%
Altimeter
29.83" Hg
Pressure
1010.12 hPa